RYR1MC LERS-EBCI
Flight info
| Callsign | RYR1MC |
|---|---|
| Flight time | 1h 32m |
| Altitude | 34000 |
| Route | ARBEK T113 RUTIP DCT OKABI/N0460F340 DCT TOU DCT ADABI DCT BOKNO UN858 VANAD UN874 BAMES UT191 PODEM UN873 BAZOS DCT BELDI DCT VEKIN Z173 ARVOL |
| Aircraft | B738/M-SDE2E3FGHIRWXY/LB1 |
Departure
| Time | 2026-04-28 14:47 |
|---|---|
| Airport | Reus Airport (LERS) |
Arrival
| Time | 2026-04-28 16:20 |
|---|---|
| Airport | Brussels South Charleroi Airport (EBCI) |
| Time | Latitude | Longitude | Altitude | Speed | Heading |
|---|---|---|---|---|---|
| 2026-04-28 14:19 | 41.14665 | 1.15560 | 250 ft | 0 kts | 339° |
| 2026-04-28 14:36 | 41.14660 | 1.15563 | 243 ft | 1 kts | 339° |
| 2026-04-28 14:36 | 41.14654 | 1.15566 | 243 ft | 1 kts | 339° |
| 2026-04-28 14:37 | 41.14648 | 1.15569 | 243 ft | 1 kts | 339° |
| 2026-04-28 14:37 | 41.14643 | 1.15572 | 244 ft | 1 kts | 339° |
| 2026-04-28 14:37 | 41.14635 | 1.15576 | 244 ft | 4 kts | 339° |
| 2026-04-28 14:37 | 41.14612 | 1.15588 | 243 ft | 3 kts | 338° |
| 2026-04-28 14:38 | 41.14597 | 1.15612 | 243 ft | 4 kts | 273° |
| 2026-04-28 14:38 | 41.14600 | 1.15636 | 243 ft | 0 kts | 248° |
| 2026-04-28 14:40 | 41.14599 | 1.15631 | 243 ft | 2 kts | 249° |
| 2026-04-28 14:40 | 41.14583 | 1.15586 | 243 ft | 5 kts | 234° |
| 2026-04-28 14:40 | 41.14551 | 1.15568 | 243 ft | 6 kts | 178° |
| 2026-04-28 14:41 | 41.14512 | 1.15580 | 243 ft | 6 kts | 165° |
| 2026-04-28 14:41 | 41.14470 | 1.15601 | 243 ft | 7 kts | 159° |
| 2026-04-28 14:41 | 41.14436 | 1.15642 | 243 ft | 7 kts | 112° |
| 2026-04-28 14:41 | 41.14446 | 1.15708 | 243 ft | 8 kts | 70° |
| 2026-04-28 14:42 | 41.14470 | 1.15795 | 243 ft | 12 kts | 70° |
| 2026-04-28 14:42 | 41.14512 | 1.15907 | 243 ft | 9 kts | 33° |
| 2026-04-28 14:42 | 41.14573 | 1.15895 | 243 ft | 9 kts | 339° |
| 2026-04-28 14:42 | 41.14631 | 1.15867 | 243 ft | 9 kts | 342° |
| 2026-04-28 14:43 | 41.14679 | 1.15906 | 243 ft | 9 kts | 64° |
| 2026-04-28 14:43 | 41.14703 | 1.15985 | 243 ft | 11 kts | 69° |
| 2026-04-28 14:43 | 41.14736 | 1.16100 | 243 ft | 16 kts | 69° |
| 2026-04-28 14:43 | 41.14782 | 1.16256 | 243 ft | 20 kts | 69° |
| 2026-04-28 14:44 | 41.14834 | 1.16437 | 243 ft | 23 kts | 69° |
| 2026-04-28 14:44 | 41.14895 | 1.16640 | 243 ft | 25 kts | 68° |
| 2026-04-28 14:44 | 41.14959 | 1.16860 | 243 ft | 27 kts | 69° |
| 2026-04-28 14:44 | 41.15028 | 1.17100 | 243 ft | 28 kts | 69° |
| 2026-04-28 14:45 | 41.15102 | 1.17351 | 243 ft | 30 kts | 69° |
| 2026-04-28 14:45 | 41.15180 | 1.17618 | 243 ft | 32 kts | 69° |
| 2026-04-28 14:45 | 41.15261 | 1.17893 | 243 ft | 32 kts | 69° |
| 2026-04-28 14:45 | 41.15335 | 1.18148 | 243 ft | 23 kts | 69° |
| 2026-04-28 14:46 | 41.15309 | 1.18254 | 243 ft | 10 kts | 152° |
| 2026-04-28 14:46 | 41.15244 | 1.18282 | 243 ft | 10 kts | 163° |
| 2026-04-28 14:46 | 41.15190 | 1.18251 | 243 ft | 10 kts | 247° |
| 2026-04-28 14:46 | 41.15162 | 1.18162 | 243 ft | 17 kts | 248° |
| 2026-04-28 14:47 | 41.15025 | 1.17695 | 243 ft | 91 kts | 249° |
| 2026-04-28 14:47 | 41.14710 | 1.16631 | 246 ft | 154 kts | 246° |
| 2026-04-28 14:47 | 41.14292 | 1.15222 | 768 ft | 168 kts | 245° |
| 2026-04-28 14:47 | 41.13662 | 1.13931 | 1456 ft | 167 kts | 210° |
| 2026-04-28 14:48 | 41.12715 | 1.13150 | 2283 ft | 165 kts | 221° |
| 2026-04-28 14:48 | 41.12361 | 1.11683 | 2928 ft | 177 kts | 275° |
| 2026-04-28 14:48 | 41.12533 | 1.10089 | 3816 ft | 171 kts | 274° |
| 2026-04-28 14:48 | 41.12559 | 1.08494 | 4520 ft | 177 kts | 265° |
| 2026-04-28 14:49 | 41.12742 | 1.06786 | 4953 ft | 206 kts | 294° |
| 2026-04-28 14:49 | 41.13824 | 1.05400 | 5228 ft | 234 kts | 336° |
| 2026-04-28 14:49 | 41.15508 | 1.05155 | 5469 ft | 254 kts | 11° |
| 2026-04-28 14:49 | 41.17288 | 1.05678 | 5745 ft | 280 kts | 13° |
| 2026-04-28 14:50 | 41.19240 | 1.06217 | 6467 ft | 289 kts | 12° |
| 2026-04-28 14:50 | 41.21211 | 1.06711 | 7350 ft | 290 kts | 10° |
| 2026-04-28 14:50 | 41.23219 | 1.07161 | 8127 ft | 294 kts | 9° |
| 2026-04-28 14:50 | 41.25248 | 1.07583 | 8948 ft | 298 kts | 9° |
| 2026-04-28 14:51 | 41.27330 | 1.07991 | 9743 ft | 301 kts | 9° |
| 2026-04-28 14:51 | 41.29421 | 1.08390 | 10491 ft | 308 kts | 8° |
| 2026-04-28 14:51 | 41.31586 | 1.08796 | 10788 ft | 329 kts | 8° |
| 2026-04-28 14:51 | 41.33940 | 1.09234 | 10951 ft | 353 kts | 8° |
| 2026-04-28 14:52 | 41.36456 | 1.09698 | 11101 ft | 374 kts | 7° |
| 2026-04-28 14:52 | 41.39069 | 1.10179 | 11556 ft | 385 kts | 7° |
| 2026-04-28 14:52 | 41.41744 | 1.10670 | 12178 ft | 390 kts | 7° |
| 2026-04-28 14:52 | 41.44452 | 1.11168 | 12876 ft | 394 kts | 7° |
| 2026-04-28 14:53 | 41.47176 | 1.11670 | 13610 ft | 398 kts | 6° |
| 2026-04-28 14:53 | 41.49934 | 1.12175 | 14274 ft | 401 kts | 6° |
| 2026-04-28 14:53 | 41.52689 | 1.12683 | 14875 ft | 406 kts | 6° |
| 2026-04-28 14:53 | 41.55493 | 1.13252 | 15581 ft | 409 kts | 9° |
| 2026-04-28 14:54 | 41.58295 | 1.14059 | 16212 ft | 415 kts | 12° |
| 2026-04-28 14:54 | 41.61122 | 1.15001 | 16811 ft | 420 kts | 13° |
| 2026-04-28 14:54 | 41.63962 | 1.15984 | 17440 ft | 424 kts | 13° |
| 2026-04-28 14:54 | 41.66831 | 1.16973 | 18031 ft | 428 kts | 13° |
| 2026-04-28 14:55 | 41.69740 | 1.17960 | 18561 ft | 433 kts | 12° |
| 2026-04-28 14:55 | 41.72678 | 1.18940 | 19132 ft | 435 kts | 12° |
| 2026-04-28 14:55 | 41.75632 | 1.19915 | 19729 ft | 437 kts | 12° |
| 2026-04-28 14:55 | 41.78595 | 1.20886 | 20279 ft | 440 kts | 12° |
| 2026-04-28 14:56 | 41.81582 | 1.21862 | 20815 ft | 443 kts | 12° |
| 2026-04-28 14:56 | 41.84587 | 1.22844 | 21324 ft | 446 kts | 12° |
| 2026-04-28 14:56 | 41.87578 | 1.23824 | 21824 ft | 449 kts | 12° |
| 2026-04-28 14:56 | 41.90662 | 1.24835 | 22334 ft | 452 kts | 12° |
| 2026-04-28 14:57 | 41.93681 | 1.25826 | 22842 ft | 454 kts | 12° |
| 2026-04-28 14:57 | 41.95750 | 1.26508 | 23163 ft | 456 kts | 12° |
| 2026-04-28 14:57 | 41.99855 | 1.27859 | 23718 ft | 460 kts | 12° |
| 2026-04-28 14:57 | 42.02975 | 1.28888 | 24116 ft | 463 kts | 12° |
| 2026-04-28 14:58 | 42.06111 | 1.29923 | 24501 ft | 465 kts | 12° |
| 2026-04-28 14:58 | 42.09277 | 1.30969 | 24890 ft | 468 kts | 12° |
| 2026-04-28 14:58 | 42.12446 | 1.32016 | 25269 ft | 471 kts | 12° |
| 2026-04-28 14:58 | 42.15640 | 1.33072 | 25659 ft | 473 kts | 12° |
| 2026-04-28 14:59 | 42.18848 | 1.34127 | 26057 ft | 476 kts | 12° |
| 2026-04-28 14:59 | 42.22033 | 1.35174 | 26415 ft | 478 kts | 12° |
| 2026-04-28 14:59 | 42.25270 | 1.36240 | 26767 ft | 480 kts | 12° |
| 2026-04-28 14:59 | 42.28529 | 1.37315 | 27101 ft | 483 kts | 12° |
| 2026-04-28 15:00 | 42.31809 | 1.38398 | 27428 ft | 485 kts | 12° |
| 2026-04-28 15:00 | 42.35099 | 1.39485 | 27737 ft | 488 kts | 12° |
| 2026-04-28 15:00 | 42.38415 | 1.40584 | 28040 ft | 490 kts | 12° |
| 2026-04-28 15:00 | 42.41735 | 1.41685 | 28400 ft | 491 kts | 12° |
| 2026-04-28 15:01 | 42.45005 | 1.42769 | 28916 ft | 488 kts | 12° |
| 2026-04-28 15:01 | 42.48299 | 1.43864 | 29418 ft | 486 kts | 12° |
| 2026-04-28 15:01 | 42.51569 | 1.44967 | 29882 ft | 484 kts | 12° |
| 2026-04-28 15:01 | 42.54879 | 1.45873 | 30207 ft | 483 kts | 4° |
| 2026-04-28 15:02 | 42.57100 | 1.46045 | 30390 ft | 481 kts | 358° |
| 2026-04-28 15:02 | 42.61544 | 1.46024 | 30890 ft | 480 kts | 357° |
| 2026-04-28 15:02 | 42.64882 | 1.45997 | 31312 ft | 478 kts | 357° |
| 2026-04-28 15:02 | 42.67129 | 1.45985 | 31607 ft | 477 kts | 357° |
| 2026-04-28 15:03 | 42.70453 | 1.45982 | 32036 ft | 475 kts | 358° |
| 2026-04-28 15:03 | 42.73753 | 1.45996 | 32418 ft | 474 kts | 358° |
| 2026-04-28 15:03 | 42.77004 | 1.45988 | 32758 ft | 473 kts | 358° |
| 2026-04-28 15:03 | 42.80291 | 1.46021 | 33220 ft | 470 kts | 358° |
| 2026-04-28 15:04 | 42.83562 | 1.46070 | 33555 ft | 469 kts | 358° |
| 2026-04-28 15:04 | 42.86827 | 1.46125 | 33887 ft | 469 kts | 358° |
| 2026-04-28 15:04 | 42.90105 | 1.46177 | 33941 ft | 473 kts | 358° |
| 2026-04-28 15:05 | 42.96708 | 1.46273 | 33953 ft | 473 kts | 358° |
| 2026-04-28 15:05 | 43.03209 | 1.46360 | 33945 ft | 468 kts | 358° |
| 2026-04-28 15:06 | 43.09716 | 1.46443 | 33956 ft | 467 kts | 358° |
| 2026-04-28 15:06 | 43.16221 | 1.46527 | 33951 ft | 467 kts | 358° |
| 2026-04-28 15:07 | 43.22727 | 1.46609 | 33960 ft | 468 kts | 358° |
| 2026-04-28 15:07 | 43.29258 | 1.46693 | 33945 ft | 469 kts | 358° |
| 2026-04-28 15:08 | 43.35799 | 1.46778 | 33954 ft | 471 kts | 358° |
| 2026-04-28 15:08 | 43.42346 | 1.46862 | 33952 ft | 474 kts | 358° |
| 2026-04-28 15:09 | 43.48971 | 1.46948 | 33946 ft | 477 kts | 358° |
| 2026-04-28 15:09 | 43.51409 | 1.46980 | 33951 ft | 478 kts | 358° |
| 2026-04-28 15:10 | 43.58048 | 1.47067 | 33940 ft | 480 kts | 358° |
| 2026-04-28 15:10 | 43.64756 | 1.47155 | 33939 ft | 482 kts | 358° |
| 2026-04-28 15:11 | 43.71484 | 1.47244 | 33943 ft | 484 kts | 358° |
| 2026-04-28 15:11 | 43.78228 | 1.47333 | 33950 ft | 485 kts | 357° |
| 2026-04-28 15:12 | 43.84968 | 1.47422 | 33953 ft | 485 kts | 357° |
| 2026-04-28 15:12 | 43.91720 | 1.47511 | 33963 ft | 485 kts | 357° |
| 2026-04-28 15:13 | 43.98472 | 1.47601 | 33974 ft | 485 kts | 357° |
| 2026-04-28 15:13 | 44.05199 | 1.47689 | 33988 ft | 489 kts | 356° |
| 2026-04-28 15:14 | 44.11966 | 1.47781 | 33968 ft | 482 kts | 356° |
| 2026-04-28 15:14 | 44.18662 | 1.47873 | 33984 ft | 480 kts | 356° |
| 2026-04-28 15:15 | 44.25353 | 1.47960 | 33980 ft | 480 kts | 356° |
| 2026-04-28 15:15 | 44.31989 | 1.48048 | 33984 ft | 480 kts | 356° |
| 2026-04-28 15:16 | 44.38700 | 1.48137 | 34003 ft | 483 kts | 356° |
| 2026-04-28 15:16 | 44.45452 | 1.48226 | 34007 ft | 486 kts | 356° |
| 2026-04-28 15:17 | 44.52238 | 1.48320 | 33985 ft | 487 kts | 356° |
| 2026-04-28 15:17 | 44.58996 | 1.48413 | 33996 ft | 485 kts | 356° |
| 2026-04-28 15:18 | 44.65688 | 1.48504 | 34003 ft | 483 kts | 356° |
| 2026-04-28 15:18 | 44.72405 | 1.48595 | 34008 ft | 481 kts | 355° |
| 2026-04-28 15:19 | 44.79103 | 1.48686 | 33997 ft | 480 kts | 355° |
| 2026-04-28 15:19 | 44.85741 | 1.48776 | 33997 ft | 479 kts | 355° |
| 2026-04-28 15:20 | 44.92400 | 1.48867 | 34008 ft | 479 kts | 355° |
| 2026-04-28 15:20 | 44.99085 | 1.48958 | 33997 ft | 480 kts | 355° |
| 2026-04-28 15:21 | 45.05776 | 1.49049 | 33999 ft | 480 kts | 355° |
| 2026-04-28 15:21 | 45.12433 | 1.49141 | 34002 ft | 481 kts | 355° |
| 2026-04-28 15:22 | 45.19142 | 1.49232 | 34005 ft | 482 kts | 355° |
| 2026-04-28 15:22 | 45.25871 | 1.49326 | 34006 ft | 484 kts | 355° |
| 2026-04-28 15:23 | 45.32619 | 1.49420 | 34007 ft | 485 kts | 355° |
| 2026-04-28 15:23 | 45.39373 | 1.49514 | 33997 ft | 486 kts | 355° |
| 2026-04-28 15:24 | 45.46101 | 1.49608 | 33996 ft | 486 kts | 355° |
| 2026-04-28 15:24 | 45.52877 | 1.49703 | 33997 ft | 487 kts | 355° |
| 2026-04-28 15:25 | 45.59661 | 1.49798 | 33996 ft | 487 kts | 355° |
| 2026-04-28 15:25 | 45.66458 | 1.49893 | 33983 ft | 487 kts | 355° |
| 2026-04-28 15:26 | 45.73192 | 1.49989 | 33977 ft | 487 kts | 354° |
| 2026-04-28 15:26 | 45.79976 | 1.50084 | 33971 ft | 486 kts | 354° |
| 2026-04-28 15:27 | 45.86748 | 1.50180 | 33988 ft | 486 kts | 354° |
| 2026-04-28 15:27 | 45.93528 | 1.50276 | 33971 ft | 486 kts | 354° |
| 2026-04-28 15:28 | 46.00254 | 1.50372 | 33976 ft | 486 kts | 354° |
| 2026-04-28 15:28 | 46.07032 | 1.50468 | 33981 ft | 486 kts | 354° |
| 2026-04-28 15:29 | 46.13809 | 1.50565 | 33989 ft | 486 kts | 354° |
| 2026-04-28 15:29 | 46.20591 | 1.50661 | 33985 ft | 487 kts | 354° |
| 2026-04-28 15:30 | 46.27335 | 1.50758 | 33980 ft | 487 kts | 354° |
| 2026-04-28 15:30 | 46.34135 | 1.50856 | 33984 ft | 487 kts | 354° |
| 2026-04-28 15:31 | 46.40886 | 1.50954 | 33979 ft | 487 kts | 354° |
| 2026-04-28 15:31 | 46.47679 | 1.51053 | 33983 ft | 487 kts | 354° |
| 2026-04-28 15:32 | 46.54457 | 1.51149 | 33977 ft | 487 kts | 354° |
| 2026-04-28 15:32 | 46.61254 | 1.51248 | 33979 ft | 487 kts | 354° |
| 2026-04-28 15:33 | 46.67994 | 1.51346 | 33976 ft | 487 kts | 354° |
| 2026-04-28 15:33 | 46.74777 | 1.51446 | 33976 ft | 487 kts | 354° |
| 2026-04-28 15:34 | 46.81553 | 1.51545 | 33973 ft | 487 kts | 354° |
| 2026-04-28 15:34 | 46.88333 | 1.51645 | 33975 ft | 487 kts | 354° |
| 2026-04-28 15:35 | 46.95108 | 1.51745 | 33978 ft | 487 kts | 353° |
| 2026-04-28 15:35 | 47.05236 | 1.51893 | 33986 ft | 487 kts | 354° |
| 2026-04-28 15:36 | 47.12023 | 1.51994 | 33995 ft | 487 kts | 354° |
| 2026-04-28 15:36 | 47.18809 | 1.52095 | 33994 ft | 487 kts | 354° |
| 2026-04-28 15:37 | 47.25589 | 1.52196 | 34000 ft | 487 kts | 354° |
| 2026-04-28 15:37 | 47.31238 | 1.52280 | 33996 ft | 488 kts | 354° |
| 2026-04-28 15:38 | 47.39140 | 1.52397 | 34000 ft | 488 kts | 354° |
| 2026-04-28 15:38 | 47.45965 | 1.52500 | 34002 ft | 489 kts | 354° |
| 2026-04-28 15:39 | 47.52726 | 1.52602 | 34006 ft | 489 kts | 354° |
| 2026-04-28 15:39 | 47.59538 | 1.52704 | 34015 ft | 489 kts | 354° |
| 2026-04-28 15:40 | 47.66365 | 1.52807 | 34020 ft | 490 kts | 354° |
| 2026-04-28 15:40 | 47.73190 | 1.52910 | 34030 ft | 490 kts | 354° |
| 2026-04-28 15:41 | 47.80022 | 1.53014 | 34032 ft | 491 kts | 355° |
| 2026-04-28 15:41 | 47.86816 | 1.53118 | 34031 ft | 491 kts | 355° |
| 2026-04-28 15:42 | 47.93638 | 1.53222 | 34023 ft | 490 kts | 355° |
| 2026-04-28 15:42 | 48.00478 | 1.53327 | 34023 ft | 490 kts | 355° |
| 2026-04-28 15:43 | 48.07300 | 1.53432 | 34024 ft | 490 kts | 355° |
| 2026-04-28 15:43 | 48.14132 | 1.53537 | 34031 ft | 490 kts | 355° |
| 2026-04-28 15:44 | 48.20941 | 1.53641 | 34031 ft | 490 kts | 356° |
| 2026-04-28 15:44 | 48.27730 | 1.53746 | 34038 ft | 490 kts | 356° |
| 2026-04-28 15:45 | 48.34550 | 1.53852 | 34042 ft | 491 kts | 356° |
| 2026-04-28 15:45 | 48.41399 | 1.53958 | 34047 ft | 491 kts | 356° |
| 2026-04-28 15:46 | 48.48248 | 1.54065 | 34050 ft | 492 kts | 357° |
| 2026-04-28 15:46 | 48.55065 | 1.54172 | 34049 ft | 493 kts | 357° |
| 2026-04-28 15:47 | 48.61944 | 1.54280 | 34056 ft | 493 kts | 357° |
| 2026-04-28 15:47 | 48.68809 | 1.54388 | 34060 ft | 494 kts | 357° |
| 2026-04-28 15:48 | 48.75691 | 1.54496 | 34056 ft | 494 kts | 358° |
| 2026-04-28 15:48 | 48.82557 | 1.54605 | 34066 ft | 494 kts | 358° |
| 2026-04-28 15:49 | 48.89409 | 1.54714 | 34075 ft | 494 kts | 358° |
| 2026-04-28 15:49 | 48.96281 | 1.54823 | 34076 ft | 494 kts | 358° |
| 2026-04-28 15:50 | 49.03172 | 1.54933 | 34076 ft | 493 kts | 358° |
| 2026-04-28 15:50 | 49.09973 | 1.55039 | 33357 ft | 480 kts | 0° |
| 2026-04-28 15:51 | 49.13256 | 1.55092 | 33583 ft | 466 kts | 0° |
| 2026-04-28 15:51 | 49.16497 | 1.55145 | 33766 ft | 463 kts | 0° |
| 2026-04-28 15:51 | 49.21878 | 1.55269 | 33926 ft | 467 kts | 4° |
| 2026-04-28 15:52 | 49.25073 | 1.56196 | 33988 ft | 470 kts | 20° |
| 2026-04-28 15:52 | 49.28001 | 1.58409 | 34018 ft | 472 kts | 33° |
| 2026-04-28 15:52 | 49.30606 | 1.61507 | 34002 ft | 475 kts | 44° |
| 2026-04-28 15:52 | 49.32966 | 1.65086 | 34013 ft | 477 kts | 45° |
| 2026-04-28 15:53 | 49.37692 | 1.72190 | 33989 ft | 473 kts | 44° |
| 2026-04-28 15:53 | 49.42414 | 1.79140 | 33997 ft | 468 kts | 44° |
| 2026-04-28 15:54 | 49.47128 | 1.86054 | 34002 ft | 467 kts | 44° |
| 2026-04-28 15:54 | 49.51800 | 1.92937 | 34002 ft | 467 kts | 44° |
| 2026-04-28 15:55 | 49.56496 | 1.99872 | 34002 ft | 468 kts | 44° |
| 2026-04-28 15:55 | 49.61223 | 2.06872 | 33636 ft | 474 kts | 44° |
| 2026-04-28 15:56 | 49.63565 | 2.10348 | 33283 ft | 472 kts | 44° |
| 2026-04-28 15:56 | 49.65924 | 2.13854 | 32941 ft | 471 kts | 44° |
| 2026-04-28 15:56 | 49.68287 | 2.17371 | 32596 ft | 471 kts | 44° |
| 2026-04-28 15:56 | 49.70651 | 2.20895 | 32248 ft | 472 kts | 44° |
| 2026-04-28 15:57 | 49.73012 | 2.24420 | 31903 ft | 472 kts | 44° |
| 2026-04-28 15:57 | 49.75377 | 2.27956 | 31554 ft | 473 kts | 44° |
| 2026-04-28 15:57 | 49.77741 | 2.31494 | 31209 ft | 473 kts | 44° |
| 2026-04-28 15:57 | 49.80118 | 2.35058 | 30859 ft | 473 kts | 44° |
| 2026-04-28 15:58 | 49.82452 | 2.38562 | 30511 ft | 473 kts | 44° |
| 2026-04-28 15:58 | 49.84817 | 2.42118 | 30169 ft | 474 kts | 44° |
| 2026-04-28 15:58 | 49.87190 | 2.45691 | 29818 ft | 474 kts | 44° |
| 2026-04-28 15:58 | 49.89558 | 2.49263 | 29471 ft | 475 kts | 44° |
| 2026-04-28 15:59 | 49.91927 | 2.52840 | 29117 ft | 474 kts | 44° |
| 2026-04-28 15:59 | 49.94278 | 2.56393 | 28674 ft | 472 kts | 44° |
| 2026-04-28 15:59 | 49.96644 | 2.59978 | 28323 ft | 478 kts | 44° |
| 2026-04-28 15:59 | 49.99042 | 2.63624 | 27952 ft | 483 kts | 44° |
| 2026-04-28 16:00 | 50.01436 | 2.67277 | 27574 ft | 483 kts | 44° |
| 2026-04-28 16:00 | 50.03797 | 2.70887 | 27204 ft | 482 kts | 44° |
| 2026-04-28 16:00 | 50.06193 | 2.74554 | 26829 ft | 482 kts | 44° |
| 2026-04-28 16:00 | 50.08576 | 2.78209 | 26456 ft | 481 kts | 44° |
| 2026-04-28 16:01 | 50.10964 | 2.81873 | 26083 ft | 481 kts | 44° |
| 2026-04-28 16:01 | 50.13341 | 2.85527 | 25705 ft | 477 kts | 44° |
| 2026-04-28 16:01 | 50.15669 | 2.89109 | 25315 ft | 463 kts | 45° |
| 2026-04-28 16:01 | 50.17928 | 2.92591 | 24932 ft | 450 kts | 45° |
| 2026-04-28 16:02 | 50.20136 | 2.95999 | 24552 ft | 439 kts | 45° |
| 2026-04-28 16:02 | 50.22281 | 2.99313 | 24129 ft | 430 kts | 45° |
| 2026-04-28 16:02 | 50.24396 | 3.02587 | 23539 ft | 426 kts | 45° |
| 2026-04-28 16:02 | 50.26501 | 3.05849 | 22889 ft | 424 kts | 45° |
| 2026-04-28 16:03 | 50.28592 | 3.09093 | 22268 ft | 421 kts | 45° |
| 2026-04-28 16:03 | 50.30660 | 3.12307 | 21683 ft | 417 kts | 45° |
| 2026-04-28 16:03 | 50.32681 | 3.15451 | 21122 ft | 413 kts | 45° |
| 2026-04-28 16:03 | 50.34712 | 3.18615 | 20547 ft | 410 kts | 45° |
| 2026-04-28 16:04 | 50.36725 | 3.21754 | 19970 ft | 406 kts | 45° |
| 2026-04-28 16:04 | 50.38718 | 3.24865 | 19386 ft | 403 kts | 45° |
| 2026-04-28 16:04 | 50.40663 | 3.27981 | 18823 ft | 399 kts | 50° |
| 2026-04-28 16:04 | 50.42072 | 3.31698 | 17863 ft | 397 kts | 71° |
| 2026-04-28 16:05 | 50.42504 | 3.35953 | 16851 ft | 394 kts | 89° |
| 2026-04-28 16:05 | 50.42400 | 3.40171 | 16396 ft | 377 kts | 94° |
| 2026-04-28 16:05 | 50.42233 | 3.44155 | 16201 ft | 355 kts | 94° |
| 2026-04-28 16:05 | 50.42066 | 3.47922 | 15957 ft | 338 kts | 94° |
| 2026-04-28 16:06 | 50.41909 | 3.51540 | 15628 ft | 326 kts | 94° |
| 2026-04-28 16:06 | 50.41755 | 3.54995 | 15255 ft | 316 kts | 97° |
| 2026-04-28 16:06 | 50.41153 | 3.58257 | 14711 ft | 312 kts | 119° |
| 2026-04-28 16:06 | 50.39797 | 3.60863 | 14137 ft | 309 kts | 143° |
| 2026-04-28 16:07 | 50.37899 | 3.62337 | 13585 ft | 305 kts | 167° |
| 2026-04-28 16:07 | 50.35809 | 3.62431 | 13021 ft | 302 kts | 192° |
| 2026-04-28 16:07 | 50.32541 | 3.58720 | 11921 ft | 296 kts | 242° |
| 2026-04-28 16:08 | 50.31985 | 3.55648 | 11373 ft | 295 kts | 268° |
| 2026-04-28 16:08 | 50.32330 | 3.52523 | 10827 ft | 293 kts | 293° |
| 2026-04-28 16:08 | 50.33513 | 3.49938 | 10298 ft | 296 kts | 319° |
| 2026-04-28 16:09 | 50.37267 | 3.48367 | 10000 ft | 281 kts | 13° |
| 2026-04-28 16:09 | 50.38982 | 3.49634 | 9975 ft | 270 kts | 40° |
| 2026-04-28 16:09 | 50.40102 | 3.51929 | 9815 ft | 268 kts | 68° |
| 2026-04-28 16:10 | 50.40426 | 3.57741 | 9318 ft | 273 kts | 92° |
| 2026-04-28 16:10 | 50.40355 | 3.60718 | 8995 ft | 273 kts | 92° |
| 2026-04-28 16:10 | 50.40205 | 3.66678 | 8347 ft | 274 kts | 92° |
| 2026-04-28 16:11 | 50.40072 | 3.72595 | 7670 ft | 270 kts | 92° |
| 2026-04-28 16:11 | 50.39951 | 3.78394 | 6999 ft | 262 kts | 92° |
| 2026-04-28 16:12 | 50.39844 | 3.83593 | 6391 ft | 256 kts | 92° |
| 2026-04-28 16:12 | 50.39788 | 3.86358 | 6076 ft | 248 kts | 92° |
| 2026-04-28 16:13 | 50.39681 | 3.91527 | 5476 ft | 229 kts | 92° |
| 2026-04-28 16:13 | 50.39629 | 3.93977 | 5202 ft | 221 kts | 92° |
| 2026-04-28 16:13 | 50.39528 | 3.98728 | 4840 ft | 215 kts | 92° |
| 2026-04-28 16:14 | 50.39425 | 4.03500 | 4652 ft | 224 kts | 92° |
| 2026-04-28 16:14 | 50.39319 | 4.08315 | 4445 ft | 223 kts | 92° |
| 2026-04-28 16:15 | 50.39217 | 4.12960 | 4250 ft | 202 kts | 92° |
| 2026-04-28 16:15 | 50.39167 | 4.15151 | 4109 ft | 201 kts | 92° |
| 2026-04-28 16:15 | 50.39116 | 4.17331 | 3892 ft | 199 kts | 92° |
| 2026-04-28 16:16 | 50.39075 | 4.21585 | 3481 ft | 195 kts | 79° |
| 2026-04-28 16:16 | 50.39627 | 4.23516 | 3321 ft | 195 kts | 61° |
| 2026-04-28 16:17 | 50.40803 | 4.27394 | 2930 ft | 192 kts | 65° |
| 2026-04-28 16:17 | 50.41346 | 4.29261 | 2715 ft | 183 kts | 66° |
| 2026-04-28 16:17 | 50.41865 | 4.31048 | 2433 ft | 177 kts | 64° |
| 2026-04-28 16:17 | 50.42372 | 4.32742 | 2205 ft | 169 kts | 67° |
| 2026-04-28 16:18 | 50.42839 | 4.34405 | 2000 ft | 159 kts | 66° |
| 2026-04-28 16:18 | 50.43286 | 4.35961 | 1848 ft | 152 kts | 66° |
| 2026-04-28 16:18 | 50.43722 | 4.37470 | 1580 ft | 152 kts | 66° |
| 2026-04-28 16:18 | 50.44158 | 4.38974 | 1386 ft | 148 kts | 66° |
| 2026-04-28 16:19 | 50.44577 | 4.40423 | 1204 ft | 147 kts | 66° |
| 2026-04-28 16:19 | 50.44999 | 4.41879 | 1010 ft | 147 kts | 66° |
| 2026-04-28 16:19 | 50.45425 | 4.43345 | 818 ft | 147 kts | 66° |
| 2026-04-28 16:19 | 50.45842 | 4.44778 | 624 ft | 138 kts | 67° |
| 2026-04-28 16:20 | 50.46193 | 4.46001 | 614 ft | 83 kts | 65° |
| 2026-04-28 16:20 | 50.46357 | 4.46564 | 619 ft | 42 kts | 65° |
| 2026-04-28 16:20 | 50.46467 | 4.46878 | 615 ft | 23 kts | 28° |
| 2026-04-28 16:20 | 50.46573 | 4.46847 | 612 ft | 0 kts | 335° |
| 2026-04-28 16:22 | 50.46582 | 4.46841 | 620 ft | 3 kts | 335° |
| 2026-04-28 16:22 | 50.46604 | 4.46825 | 617 ft | 4 kts | 335° |
| 2026-04-28 16:22 | 50.46637 | 4.46802 | 614 ft | 7 kts | 335° |
| 2026-04-28 16:22 | 50.46685 | 4.46826 | 624 ft | 9 kts | 54° |
| 2026-04-28 16:23 | 50.46713 | 4.46915 | 612 ft | 9 kts | 66° |
| 2026-04-28 16:23 | 50.46738 | 4.47004 | 619 ft | 9 kts | 65° |
| 2026-04-28 16:23 | 50.46788 | 4.47021 | 622 ft | 9 kts | 336° |
| 2026-04-28 16:23 | 50.46835 | 4.46988 | 612 ft | 6 kts | 335° |
| 2026-04-28 16:24 | 50.46840 | 4.46985 | 612 ft | 0 kts | 335° |